sensor_id;sensor_type;location;lat;lon;timestamp;pressure;altitude;pressure_sealevel;temperature;humidity
29839;BME280;18669;53.356;-1.464;2022-12-04T00:01:05;101069.00;;;5.94;100.00
29839;BME280;18669;53.356;-1.464;2022-12-04T00:03:32;101071.50;;;5.75;100.00
29839;BME280;18669;53.356;-1.464;2022-12-04T00:06:13;101068.97;;;5.88;100.00
29839;BME280;18669;53.356;-1.464;2022-12-04T00:08:40;101070.66;;;5.79;100.00
29839;BME280;18669;53.356;-1.464;2022-12-04T00:11:08;101061.97;;;5.79;100.00
29839;BME280;18669;53.356;-1.464;2022-12-04T00:13:35;101073.25;;;5.76;100.00
29839;BME280;18669;53.356;-1.464;2022-12-04T00:16:06;101067.19;;;5.80;100.00
29839;BME280;18669;53.356;-1.464;2022-12-04T00:18:33;101067.03;;;5.56;100.00
29839;BME280;18669;53.356;-1.464;2022-12-04T00:21:05;101051.34;;;5.52;100.00
29839;BME280;18669;53.356;-1.464;2022-12-04T00:23:33;101066.06;;;5.44;100.00
29839;BME280;18669;53.356;-1.464;2022-12-04T00:26:03;101055.66;;;5.46;100.00
29839;BME280;18669;53.356;-1.464;2022-12-04T00:28:30;101056.47;;;5.38;100.00
29839;BME280;18669;53.356;-1.464;2022-12-04T00:30:57;101056.47;;;5.38;100.00
29839;BME280;18669;53.356;-1.464;2022-12-04T00:33:23;101060.81;;;5.41;100.00
29839;BME280;18669;53.356;-1.464;2022-12-04T00:35:59;101063.59;;;5.63;100.00
29839;BME280;18669;53.356;-1.464;2022-12-04T00:38:26;101052.16;;;5.45;100.00
29839;BME280;18669;53.356;-1.464;2022-12-04T00:40:52;101047.72;;;5.35;100.00
29839;BME280;18669;53.356;-1.464;2022-12-04T00:43:19;101052.06;;;5.31;100.00
29839;BME280;18669;53.356;-1.464;2022-12-04T00:45:46;101047.56;;;5.15;100.00
29839;BME280;18669;53.356;-1.464;2022-12-04T00:48:12;101047.56;;;5.15;100.00
29839;BME280;18669;53.356;-1.464;2022-12-04T00:50:38;101047.53;;;5.08;100.00
29839;BME280;18669;53.356;-1.464;2022-12-04T00:53:04;101047.50;;;5.05;100.00
29839;BME280;18669;53.356;-1.464;2022-12-04T00:55:30;101051.13;;;5.26;100.00
29839;BME280;18669;53.356;-1.464;2022-12-04T00:57:56;101044.84;;;4.99;100.00
29839;BME280;18669;53.356;-1.464;2022-12-04T01:00:22;101048.34;;;5.03;100.00
29839;BME280;18669;53.356;-1.464;2022-12-04T01:02:49;101041.38;;;5.02;100.00
29839;BME280;18669;53.356;-1.464;2022-12-04T01:05:15;101044.00;;;5.05;100.00
29839;BME280;18669;53.356;-1.464;2022-12-04T01:07:41;101044.88;;;5.02;100.00
29839;BME280;18669;53.356;-1.464;2022-12-04T01:10:11;101043.19;;;5.09;100.00
29839;BME280;18669;53.356;-1.464;2022-12-04T01:12:37;101045.69;;;5.00;100.00
29839;BME280;18669;53.356;-1.464;2022-12-04T01:15:04;101050.97;;;5.06;100.00
29839;BME280;18669;53.356;-1.464;2022-12-04T01:17:30;101038.75;;;5.00;100.00
29839;BME280;18669;53.356;-1.464;2022-12-04T01:19:57;101037.03;;;5.02;100.00
29839;BME280;18669;53.356;-1.464;2022-12-04T01:22:23;101038.72;;;4.99;100.00
29839;BME280;18669;53.356;-1.464;2022-12-04T01:24:53;101035.22;;;4.93;100.00
29839;BME280;18669;53.356;-1.464;2022-12-04T01:27:19;101046.50;;;4.89;100.00
29839;BME280;18669;53.356;-1.464;2022-12-04T01:29:45;101043.88;;;4.91;100.00
29839;BME280;18669;53.356;-1.464;2022-12-04T01:32:11;101034.34;;;4.91;100.00
29839;BME280;18669;53.356;-1.464;2022-12-04T01:34:37;101039.56;;;4.91;100.00
29839;BME280;18669;53.356;-1.464;2022-12-04T01:37:03;101035.16;;;4.87;100.00
29839;BME280;18669;53.356;-1.464;2022-12-04T01:39:29;101029.97;;;4.87;100.00
29839;BME280;18669;53.356;-1.464;2022-12-04T01:41:56;101027.28;;;4.83;100.00
29839;BME280;18669;53.356;-1.464;2022-12-04T01:44:23;101026.63;;;5.05;100.00
29839;BME280;18669;53.356;-1.464;2022-12-04T01:46:54;101031.06;;;5.14;100.00
29839;BME280;18669;53.356;-1.464;2022-12-04T01:49:34;101029.22;;;5.04;100.00
29839;BME280;18669;53.356;-1.464;2022-12-04T01:52:07;101033.56;;;5.05;100.00
29839;BME280;18669;53.356;-1.464;2022-12-04T01:54:40;101029.19;;;5.01;100.00
29839;BME280;18669;53.356;-1.464;2022-12-04T01:57:19;101030.00;;;4.97;100.00
29839;BME280;18669;53.356;-1.464;2022-12-04T01:59:50;101031.75;;;4.96;100.00
29839;BME280;18669;53.356;-1.464;2022-12-04T02:02:24;101030.03;;;4.93;100.00
29839;BME280;18669;53.356;-1.464;2022-12-04T02:04:52;101027.31;;;4.84;100.00
29839;BME280;18669;53.356;-1.464;2022-12-04T02:07:19;101031.72;;;4.90;100.00
29839;BME280;18669;53.356;-1.464;2022-12-04T02:09:45;101037.88;;;4.98;100.00
29839;BME280;18669;53.356;-1.464;2022-12-04T02:18:34;101025.81;;;5.10;100.00
29839;BME280;18669;53.356;-1.464;2022-12-04T02:20:35;101024.81;;;4.95;100.00
29839;BME280;18669;53.356;-1.464;2022-12-04T02:26:18;101024.09;;;5.13;100.00
29839;BME280;18669;53.356;-1.464;2022-12-04T02:31:40;101024.03;;;5.07;100.00
29839;BME280;18669;53.356;-1.464;2022-12-04T02:37:03;101016.22;;;5.05;100.00
29839;BME280;18669;53.356;-1.464;2022-12-04T02:39:39;101020.59;;;5.11;100.00
29839;BME280;18669;53.356;-1.464;2022-12-04T02:42:35;101019.75;;;5.17;100.00
29839;BME280;18669;53.356;-1.464;2022-12-04T02:45:05;101025.00;;;5.20;100.00
29839;BME280;18669;53.356;-1.464;2022-12-04T02:47:34;101022.28;;;5.06;100.00
29839;BME280;18669;53.356;-1.464;2022-12-04T02:50:04;101031.06;;;5.14;100.00
29839;BME280;18669;53.356;-1.464;2022-12-04T02:52:35;101027.47;;;5.03;100.00
29839;BME280;18669;53.356;-1.464;2022-12-04T02:55:12;101028.38;;;5.08;100.00
29839;BME280;18669;53.356;-1.464;2022-12-04T02:57:44;101019.69;;;5.04;100.00
29839;BME280;18669;53.356;-1.464;2022-12-04T03:00:12;101020.41;;;4.89;100.00
29839;BME280;18669;53.356;-1.464;2022-12-04T03:05:17;101018.69;;;4.95;100.00
29839;BME280;18669;53.356;-1.464;2022-12-04T03:07:49;101016.97;;;4.97;100.00
29839;BME280;18669;53.356;-1.464;2022-12-04T03:10:24;101011.78;;;5.00;100.00
29839;BME280;18669;53.356;-1.464;2022-12-04T03:13:02;101004.03;;;5.06;100.00
29839;BME280;18669;53.356;-1.464;2022-12-04T03:15:37;101013.66;;;5.13;100.00
29839;BME280;18669;53.356;-1.464;2022-12-04T03:18:14;101011.06;;;5.16;100.00
29839;BME280;18669;53.356;-1.464;2022-12-04T03:20:46;101008.44;;;5.13;100.00
29839;BME280;18669;53.356;-1.464;2022-12-04T03:23:19;101006.72;;;5.15;100.00
29839;BME280;18669;53.356;-1.464;2022-12-04T03:26:11;101002.41;;;5.22;100.00
29839;BME280;18669;53.356;-1.464;2022-12-04T03:28:59;101001.53;;;5.20;100.00
29839;BME280;18669;53.356;-1.464;2022-12-04T03:31:43;100997.13;;;5.13;100.00
29839;BME280;18669;53.356;-1.464;2022-12-04T03:34:14;100993.66;;;5.12;100.00
29839;BME280;18669;53.356;-1.464;2022-12-04T03:36:57;100995.44;;;5.16;100.00
29839;BME280;18669;53.356;-1.464;2022-12-04T03:39:30;100985.91;;;5.21;100.00
29839;BME280;18669;53.356;-1.464;2022-12-04T03:42:07;100993.78;;;5.31;100.00
29839;BME280;18669;53.356;-1.464;2022-12-04T03:47:13;100991.03;;;5.12;100.00
29839;BME280;18669;53.356;-1.464;2022-12-04T03:49:52;100990.91;;;4.97;100.00
29839;BME280;18669;53.356;-1.464;2022-12-04T03:52:42;100985.78;;;5.06;100.00
29839;BME280;18669;53.356;-1.464;2022-12-04T03:55:17;100988.44;;;5.11;100.00
29839;BME280;18669;53.356;-1.464;2022-12-04T03:57:46;100987.47;;;5.01;100.00
29839;BME280;18669;53.356;-1.464;2022-12-04T04:00:18;100984.88;;;5.04;100.00
29839;BME280;18669;53.356;-1.464;2022-12-04T04:02:55;100979.66;;;5.04;100.00
29839;BME280;18669;53.356;-1.464;2022-12-04T04:05:25;100985.75;;;5.03;100.00
29839;BME280;18669;53.356;-1.464;2022-12-04T04:07:56;100990.16;;;5.10;100.00
29839;BME280;18669;53.356;-1.464;2022-12-04T04:10:43;100983.09;;;5.00;100.00
29839;BME280;18669;53.356;-1.464;2022-12-04T04:13:14;100983.16;;;5.04;100.00
29839;BME280;18669;53.356;-1.464;2022-12-04T04:16:04;100979.66;;;5.01;100.00
29839;BME280;18669;53.356;-1.464;2022-12-04T04:18:51;100978.72;;;4.96;100.00
29839;BME280;18669;53.356;-1.464;2022-12-04T04:21:38;100982.22;;;4.98;100.00
29839;BME280;18669;53.356;-1.464;2022-12-04T04:27:04;100964.81;;;4.92;100.00
29839;BME280;18669;53.356;-1.464;2022-12-04T04:29:30;100977.88;;;4.97;100.00
29839;BME280;18669;53.356;-1.464;2022-12-04T04:37:38;100970.03;;;4.95;100.00
29839;BME280;18669;53.356;-1.464;2022-12-04T04:40:11;100979.72;;;5.10;100.00
29839;BME280;18669;53.356;-1.464;2022-12-04T04:42:50;100974.53;;;5.13;100.00
29839;BME280;18669;53.356;-1.464;2022-12-04T04:45:26;100975.38;;;5.14;100.00
29839;BME280;18669;53.356;-1.464;2022-12-04T04:48:08;100968.44;;;5.10;100.00
29839;BME280;18669;53.356;-1.464;2022-12-04T04:50:37;100967.53;;;5.04;100.00
29839;BME280;18669;53.356;-1.464;2022-12-04T04:53:08;100969.28;;;5.10;100.00
29839;BME280;18669;53.356;-1.464;2022-12-04T04:55:35;100966.66;;;5.05;100.00
29839;BME280;18669;53.356;-1.464;2022-12-04T04:58:14;100975.47;;;5.23;100.00
29839;BME280;18669;53.356;-1.464;2022-12-04T05:00:55;100971.06;;;5.16;100.00
29839;BME280;18669;53.356;-1.464;2022-12-04T05:03:23;100957.03;;;4.98;100.00
29839;BME280;18669;53.356;-1.464;2022-12-04T05:05:50;100973.59;;;5.03;100.00
29839;BME280;18669;53.356;-1.464;2022-12-04T05:08:16;100971.88;;;5.05;100.00
29839;BME280;18669;53.356;-1.464;2022-12-04T05:10:42;100969.25;;;5.07;100.00
29839;BME280;18669;53.356;-1.464;2022-12-04T05:13:10;100966.72;;;5.18;100.00
29839;BME280;18669;53.356;-1.464;2022-12-04T05:15:37;100972.75;;;5.09;100.00
29839;BME280;18669;53.356;-1.464;2022-12-04T05:18:03;100981.47;;;5.13;100.00
29839;BME280;18669;53.356;-1.464;2022-12-04T05:20:30;100969.31;;;5.13;100.00
29839;BME280;18669;53.356;-1.464;2022-12-04T05:22:56;100970.19;;;5.12;100.00
29839;BME280;18669;53.356;-1.464;2022-12-04T05:25:22;100967.66;;;5.21;100.00
29839;BME280;18669;53.356;-1.464;2022-12-04T05:27:48;100969.22;;;5.01;100.00
29839;BME280;18669;53.356;-1.464;2022-12-04T05:30:14;100969.22;;;4.99;100.00
29839;BME280;18669;53.356;-1.464;2022-12-04T05:32:41;100976.19;;;5.00;100.00
29839;BME280;18669;53.356;-1.464;2022-12-04T05:35:07;100970.97;;;5.00;100.00
29839;BME280;18669;53.356;-1.464;2022-12-04T05:37:38;100973.66;;;5.11;100.00
29839;BME280;18669;53.356;-1.464;2022-12-04T05:40:05;100968.44;;;5.10;100.00
29839;BME280;18669;53.356;-1.464;2022-12-04T05:42:32;100977.09;;;5.07;100.00
29839;BME280;18669;53.356;-1.464;2022-12-04T05:44:58;100973.66;;;5.10;100.00
29839;BME280;18669;53.356;-1.464;2022-12-04T05:47:24;100971.03;;;5.11;100.00
29839;BME280;18669;53.356;-1.464;2022-12-04T05:49:50;100971.00;;;5.08;100.00
29839;BME280;18669;53.356;-1.464;2022-12-04T05:52:17;100969.28;;;5.10;100.00
29839;BME280;18669;53.356;-1.464;2022-12-04T05:54:46;100962.34;;;5.12;100.00
29839;BME280;18669;53.356;-1.464;2022-12-04T05:57:12;100969.31;;;5.12;100.00
29839;BME280;18669;53.356;-1.464;2022-12-04T05:59:38;100967.56;;;5.12;100.00
29839;BME280;18669;53.356;-1.464;2022-12-04T06:02:04;100964.06;;;5.10;100.00
29839;BME280;18669;53.356;-1.464;2022-12-04T06:04:30;100970.16;;;5.14;100.00
29839;BME280;18669;53.356;-1.464;2022-12-04T06:06:57;100964.09;;;5.15;100.00
29839;BME280;18669;53.356;-1.464;2022-12-04T06:09:23;100965.00;;;5.15;100.00
29839;BME280;18669;53.356;-1.464;2022-12-04T06:11:49;100973.66;;;5.13;100.00
29839;BME280;18669;53.356;-1.464;2022-12-04T06:14:16;100971.03;;;5.13;100.00
29839;BME280;18669;53.356;-1.464;2022-12-04T06:16:43;100969.44;;;5.32;100.00
29839;BME280;18669;53.356;-1.464;2022-12-04T06:19:10;100966.84;;;5.35;100.00
29839;BME280;18669;53.356;-1.464;2022-12-04T06:21:37;100965.97;;;5.34;100.00
29839;BME280;18669;53.356;-1.464;2022-12-04T06:24:04;100978.06;;;5.20;100.00
29839;BME280;18669;53.356;-1.464;2022-12-04T06:26:31;100977.16;;;5.18;100.00
29839;BME280;18669;53.356;-1.464;2022-12-04T06:28:58;100972.88;;;5.21;100.00
29839;BME280;18669;53.356;-1.464;2022-12-04T06:31:27;100969.41;;;5.27;100.00
29839;BME280;18669;53.356;-1.464;2022-12-04T06:33:56;100968.53;;;5.25;100.00
29839;BME280;18669;53.356;-1.464;2022-12-04T06:36:24;100972.88;;;5.25;100.00
29839;BME280;18669;53.356;-1.464;2022-12-04T06:38:51;100970.28;;;5.29;100.00
29839;BME280;18669;53.356;-1.464;2022-12-04T06:41:19;100965.06;;;5.29;100.00
29839;BME280;18669;53.356;-1.464;2022-12-04T06:43:46;100977.25;;;5.29;100.00
29839;BME280;18669;53.356;-1.464;2022-12-04T06:46:16;100970.38;;;5.38;100.00
29839;BME280;18669;53.356;-1.464;2022-12-04T06:48:43;100965.97;;;5.30;100.00
29839;BME280;18669;53.356;-1.464;2022-12-04T06:51:13;100970.38;;;5.38;100.00
29839;BME280;18669;53.356;-1.464;2022-12-04T06:53:41;100961.59;;;5.30;100.00
29839;BME280;18669;53.356;-1.464;2022-12-04T06:56:09;100970.38;;;5.38;100.00
29839;BME280;18669;53.356;-1.464;2022-12-04T06:58:36;100972.91;;;5.31;100.00
29839;BME280;18669;53.356;-1.464;2022-12-04T07:01:11;100973.00;;;5.46;100.00
29839;BME280;18669;53.356;-1.464;2022-12-04T07:03:39;100978.13;;;5.34;100.00
29839;BME280;18669;53.356;-1.464;2022-12-04T07:06:26;100974.78;;;5.50;100.00
29839;BME280;18669;53.356;-1.464;2022-12-04T07:08:53;100974.78;;;5.52;100.00
29839;BME280;18669;53.356;-1.464;2022-12-04T07:11:21;100971.19;;;5.36;100.00
29839;BME280;18669;53.356;-1.464;2022-12-04T07:13:48;100973.84;;;5.37;100.00
29839;BME280;18669;53.356;-1.464;2022-12-04T07:16:18;100975.59;;;5.38;100.00
29839;BME280;18669;53.356;-1.464;2022-12-04T07:18:45;100980.75;;;5.34;100.00
29839;BME280;18669;53.356;-1.464;2022-12-04T07:21:16;100979.97;;;5.49;100.00
29839;BME280;18669;53.356;-1.464;2022-12-04T07:23:43;100973.81;;;5.39;100.00
29839;BME280;18669;53.356;-1.464;2022-12-04T07:26:12;100980.84;;;5.46;100.00
29839;BME280;18669;53.356;-1.464;2022-12-04T07:28:39;100982.53;;;5.40;100.00
29839;BME280;18669;53.356;-1.464;2022-12-04T07:31:08;100978.22;;;5.42;100.00
29839;BME280;18669;53.356;-1.464;2022-12-04T07:33:36;100983.34;;;5.34;100.00
29839;BME280;18669;53.356;-1.464;2022-12-04T07:36:04;100979.97;;;5.44;100.00
29839;BME280;18669;53.356;-1.464;2022-12-04T07:38:33;100982.59;;;5.49;100.00
29839;BME280;18669;53.356;-1.464;2022-12-04T07:41:03;100984.34;;;5.47;100.00
29839;BME280;18669;53.356;-1.464;2022-12-04T07:43:30;100987.78;;;5.43;100.00
29839;BME280;18669;53.356;-1.464;2022-12-04T07:45:58;100986.88;;;5.37;100.00
29839;BME280;18669;53.356;-1.464;2022-12-04T07:48:29;100995.56;;;5.36;100.00
29839;BME280;18669;53.356;-1.464;2022-12-04T07:51:09;100990.44;;;5.55;100.00
29839;BME280;18669;53.356;-1.464;2022-12-04T07:53:35;100980.78;;;5.37;100.00
29839;BME280;18669;53.356;-1.464;2022-12-04T07:56:02;100988.72;;;5.56;100.00
29839;BME280;18669;53.356;-1.464;2022-12-04T07:58:29;100996.56;;;5.56;100.00
29839;BME280;18669;53.356;-1.464;2022-12-04T08:01:07;100995.66;;;5.50;100.00
29839;BME280;18669;53.356;-1.464;2022-12-04T08:03:34;100985.16;;;5.40;100.00
29839;BME280;18669;53.356;-1.464;2022-12-04T08:06:04;100986.03;;;5.43;100.00
29839;BME280;18669;53.356;-1.464;2022-12-04T08:08:31;100987.75;;;5.36;100.00
29839;BME280;18669;53.356;-1.464;2022-12-04T08:10:57;100990.34;;;5.36;100.00
29839;BME280;18669;53.356;-1.464;2022-12-04T08:13:23;100972.13;;;5.40;100.00
29839;BME280;18669;53.356;-1.464;2022-12-04T08:15:49;100981.81;;;5.62;100.00
29839;BME280;18669;53.356;-1.464;2022-12-04T08:18:15;100980.84;;;5.46;100.00
29839;BME280;18669;53.356;-1.464;2022-12-04T08:20:42;100979.97;;;5.43;100.00
29839;BME280;18669;53.356;-1.464;2022-12-04T08:23:09;100981.69;;;5.42;100.00
29839;BME280;18669;53.356;-1.464;2022-12-04T08:25:39;100983.53;;;5.60;100.00
29839;BME280;18669;53.356;-1.464;2022-12-04T08:28:06;100985.22;;;5.52;100.00
29839;BME280;18669;53.356;-1.464;2022-12-04T08:30:32;100984.41;;;5.62;100.00
29839;BME280;18669;53.356;-1.464;2022-12-04T08:32:59;100987.81;;;5.47;100.00
29839;BME280;18669;53.356;-1.464;2022-12-04T08:35:27;100986.06;;;5.45;100.00
29839;BME280;18669;53.356;-1.464;2022-12-04T08:37:54;100985.19;;;5.44;100.00
29839;BME280;18669;53.356;-1.464;2022-12-04T08:40:20;101000.84;;;5.47;100.00
29839;BME280;18669;53.356;-1.464;2022-12-04T08:42:46;100995.63;;;5.47;100.00
29839;BME280;18669;53.356;-1.464;2022-12-04T08:45:12;100998.25;;;5.49;100.00
29839;BME280;18669;53.356;-1.464;2022-12-04T08:47:40;100999.09;;;5.45;100.00
29839;BME280;18669;53.356;-1.464;2022-12-04T08:50:06;101007.78;;;5.45;100.00
29839;BME280;18669;53.356;-1.464;2022-12-04T08:52:32;101000.06;;;5.58;100.00
29839;BME280;18669;53.356;-1.464;2022-12-04T08:54:58;100999.97;;;5.44;100.00
29839;BME280;18669;53.356;-1.464;2022-12-04T08:57:24;101003.44;;;5.44;100.00
29839;BME280;18669;53.356;-1.464;2022-12-04T08:59:50;101007.81;;;5.48;100.00
29839;BME280;18669;53.356;-1.464;2022-12-04T09:02:16;101012.19;;;5.49;100.00
29839;BME280;18669;53.356;-1.464;2022-12-04T09:04:42;101006.06;;;5.49;100.00
29839;BME280;18669;53.356;-1.464;2022-12-04T09:07:08;101007.78;;;5.41;100.00
29839;BME280;18669;53.356;-1.464;2022-12-04T09:09:35;101016.50;;;5.47;100.00
29839;BME280;18669;53.356;-1.464;2022-12-04T09:12:01;101010.41;;;5.50;100.00
29839;BME280;18669;53.356;-1.464;2022-12-04T09:14:27;101012.19;;;5.52;100.00
29839;BME280;18669;53.356;-1.464;2022-12-04T09:16:53;101013.94;;;5.53;100.00
29839;BME280;18669;53.356;-1.464;2022-12-04T09:19:19;101015.66;;;5.48;100.00
29839;BME280;18669;53.356;-1.464;2022-12-04T09:21:46;101030.44;;;5.51;100.00
29839;BME280;18669;53.356;-1.464;2022-12-04T09:24:12;101027.09;;;5.67;100.00
29839;BME280;18669;53.356;-1.464;2022-12-04T09:26:38;101031.34;;;5.51;100.00
29839;BME280;18669;53.356;-1.464;2022-12-04T09:29:09;101030.50;;;5.59;100.00
29839;BME280;18669;53.356;-1.464;2022-12-04T09:31:35;101040.00;;;5.49;100.00
29839;BME280;18669;53.356;-1.464;2022-12-04T09:34:02;101034.81;;;5.50;100.00
29839;BME280;18669;53.356;-1.464;2022-12-04T09:36:29;101045.31;;;5.60;100.00
29839;BME280;18669;53.356;-1.464;2022-12-04T09:38:56;101042.75;;;5.67;100.00
29839;BME280;18669;53.356;-1.464;2022-12-04T09:44:09;101047.06;;;5.61;100.00
29839;BME280;18669;53.356;-1.464;2022-12-04T09:46:51;101043.66;;;5.73;100.00
29839;BME280;18669;53.356;-1.464;2022-12-04T09:49:38;101049.78;;;5.79;100.00
29839;BME280;18669;53.356;-1.464;2022-12-04T09:52:57;101048.03;;;5.81;100.00
29839;BME280;18669;53.356;-1.464;2022-12-04T09:54:58;101048.91;;;5.79;100.00
29839;BME280;18669;53.356;-1.464;2022-12-04T09:57:35;101043.75;;;5.90;100.00
29839;BME280;18669;53.356;-1.464;2022-12-04T10:00:04;101051.59;;;5.93;100.00
29839;BME280;18669;53.356;-1.464;2022-12-04T10:02:37;101044.66;;;6.00;100.00
29839;BME280;18669;53.356;-1.464;2022-12-04T10:05:48;101048.13;;;5.97;100.00
29839;BME280;18669;53.356;-1.464;2022-12-04T10:16:30;101053.41;;;6.06;100.00
29839;BME280;18669;53.356;-1.464;2022-12-04T10:19:11;101057.81;;;6.12;100.00
29839;BME280;18669;53.356;-1.464;2022-12-04T10:22:00;101060.38;;;6.03;100.00
29839;BME280;18669;53.356;-1.464;2022-12-04T10:27:38;101063.94;;;6.14;100.00
29839;BME280;18669;53.356;-1.464;2022-12-04T10:30:16;101056.09;;;6.14;100.00
29839;BME280;18669;53.356;-1.464;2022-12-04T10:32:44;101065.63;;;6.07;100.00
29839;BME280;18669;53.356;-1.464;2022-12-04T10:35:34;101052.63;;;6.15;100.00
29839;BME280;18669;53.356;-1.464;2022-12-04T10:38:07;101055.19;;;6.09;100.00
29839;BME280;18669;53.356;-1.464;2022-12-04T10:40:41;101056.06;;;6.12;100.00
29839;BME280;18669;53.356;-1.464;2022-12-04T10:43:21;101058.72;;;6.23;100.00
29839;BME280;18669;53.356;-1.464;2022-12-04T10:45:50;101053.53;;;6.25;100.00
29839;BME280;18669;53.356;-1.464;2022-12-04T10:48:25;101039.63;;;6.35;100.00
29839;BME280;18669;53.356;-1.464;2022-12-04T10:50:57;101043.09;;;6.34;100.00
29839;BME280;18669;53.356;-1.464;2022-12-04T10:53:29;101040.50;;;6.40;100.00
29839;BME280;18669;53.356;-1.464;2022-12-04T10:56:07;101046.59;;;6.42;100.00
29839;BME280;18669;53.356;-1.464;2022-12-04T10:58:33;101042.25;;;6.35;100.00
29839;BME280;18669;53.356;-1.464;2022-12-04T11:01:05;101041.41;;;6.47;100.00
29839;BME280;18669;53.356;-1.464;2022-12-04T11:03:32;101048.38;;;6.50;100.00
29839;BME280;18669;53.356;-1.464;2022-12-04T11:06:07;101043.13;;;6.47;100.00
29839;BME280;18669;53.356;-1.464;2022-12-04T11:08:38;101051.81;;;6.33;100.00
29839;BME280;18669;53.356;-1.464;2022-12-04T11:11:11;101047.47;;;6.40;100.00
29839;BME280;18669;53.356;-1.464;2022-12-04T11:13:39;101043.97;;;6.33;100.00
29839;BME280;18669;53.356;-1.464;2022-12-04T11:16:06;101050.94;;;6.33;100.00
29839;BME280;18669;53.356;-1.464;2022-12-04T11:18:53;101050.09;;;6.43;100.00
29839;BME280;18669;53.356;-1.464;2022-12-04T11:21:27;101046.59;;;6.39;100.00
29839;BME280;18669;53.356;-1.464;2022-12-04T11:23:54;101041.34;;;6.36;100.00
29839;BME280;18669;53.356;-1.464;2022-12-04T11:28:56;101043.13;;;6.39;100.00
29839;BME280;18669;53.356;-1.464;2022-12-04T11:31:26;101045.72;;;6.34;100.00
29839;BME280;18669;53.356;-1.464;2022-12-04T11:33:57;101042.25;;;6.48;100.00
29839;BME280;18669;53.356;-1.464;2022-12-04T11:36:31;101034.44;;;6.55;100.00
29839;BME280;18669;53.356;-1.464;2022-12-04T11:39:37;101027.50;;;6.62;100.00
29839;BME280;18669;53.356;-1.464;2022-12-04T11:45:00;101017.91;;;6.64;100.00
29839;BME280;18669;53.356;-1.464;2022-12-04T11:47:29;101026.66;;;6.69;100.00
29839;BME280;18669;53.356;-1.464;2022-12-04T11:50:17;101023.16;;;6.77;100.00
29839;BME280;18669;53.356;-1.464;2022-12-04T11:52:58;101024.03;;;6.82;100.00
29839;BME280;18669;53.356;-1.464;2022-12-04T11:58:20;101024.91;;;6.82;100.00
29839;BME280;18669;53.356;-1.464;2022-12-04T12:01:14;101024.03;;;6.88;100.00
29839;BME280;18669;53.356;-1.464;2022-12-04T12:07:15;101017.06;;;6.79;100.00
29839;BME280;18669;53.356;-1.464;2022-12-04T12:09:51;101012.69;;;6.64;100.00
29839;BME280;18669;53.356;-1.464;2022-12-04T12:12:25;101002.25;;;6.83;100.00
29839;BME280;18669;53.356;-1.464;2022-12-04T12:15:26;101004.00;;;6.98;100.00
29839;BME280;18669;53.356;-1.464;2022-12-04T12:33:00;100995.28;;;6.97;100.00
29839;BME280;18669;53.356;-1.464;2022-12-04T12:35:37;100987.44;;;6.94;100.00
29839;BME280;18669;53.356;-1.464;2022-12-04T12:38:18;100986.56;;;7.00;100.00
29839;BME280;18669;53.356;-1.464;2022-12-04T12:40:52;100990.94;;;6.96;100.00
29839;BME280;18669;53.356;-1.464;2022-12-04T12:43:29;100983.94;;;6.91;100.00
29839;BME280;18669;53.356;-1.464;2022-12-04T12:49:13;100994.41;;;6.81;100.00
29839;BME280;18669;53.356;-1.464;2022-12-04T12:51:47;100988.28;;;6.76;100.00
29839;BME280;18669;53.356;-1.464;2022-12-04T12:54:38;100994.41;;;6.83;100.00
29839;BME280;18669;53.356;-1.464;2022-12-04T12:59:40;100991.75;;;6.74;100.00
29839;BME280;18669;53.356;-1.464;2022-12-04T13:02:19;100989.16;;;6.77;100.00
29839;BME280;18669;53.356;-1.464;2022-12-04T13:04:49;100990.91;;;6.79;100.00
29839;BME280;18669;53.356;-1.464;2022-12-04T13:07:41;100987.44;;;6.97;100.00
29839;BME280;18669;53.356;-1.464;2022-12-04T13:10:15;100986.56;;;6.95;100.00
29839;BME280;18669;53.356;-1.464;2022-12-04T13:12:48;100985.69;;;7.13;100.00
29839;BME280;18669;53.356;-1.464;2022-12-04T13:15:18;100977.84;;;7.20;100.00
29839;BME280;18669;53.356;-1.464;2022-12-04T13:17:49;100985.69;;;7.18;100.00
29839;BME280;18669;53.356;-1.464;2022-12-04T13:20:23;100983.06;;;7.24;100.00
29839;BME280;18669;53.356;-1.464;2022-12-04T13:26:22;100976.94;;;7.27;100.00
29839;BME280;18669;53.356;-1.464;2022-12-04T13:29:03;100974.34;;;7.24;100.00
29839;BME280;18669;53.356;-1.464;2022-12-04T13:40:26;100975.22;;;7.16;100.00
29839;BME280;18669;53.356;-1.464;2022-12-04T13:43:29;100975.22;;;7.20;100.00
29839;BME280;18669;53.356;-1.464;2022-12-04T13:45:59;100970.84;;;7.03;100.00
29839;BME280;18669;53.356;-1.464;2022-12-04T13:48:31;100969.13;;;6.96;100.00
29839;BME280;18669;53.356;-1.464;2022-12-04T13:51:22;100968.22;;;7.08;100.00
29839;BME280;18669;53.356;-1.464;2022-12-04T13:54:56;100963.00;;;7.11;100.00
29839;BME280;18669;53.356;-1.464;2022-12-04T13:59:41;100963.03;;;6.95;100.00
29839;BME280;18669;53.356;-1.464;2022-12-04T14:02:23;100965.63;;;7.11;100.00
29839;BME280;18669;53.356;-1.464;2022-12-04T14:05:02;100964.75;;;7.16;100.00
29839;BME280;18669;53.356;-1.464;2022-12-04T14:07:33;100959.50;;;7.24;100.00
29839;BME280;18669;53.356;-1.464;2022-12-04T14:10:29;100975.19;;;7.27;100.00
29839;BME280;18669;53.356;-1.464;2022-12-04T14:15:40;100973.47;;;7.09;100.00
29839;BME280;18669;53.356;-1.464;2022-12-04T14:20:39;100974.34;;;7.08;100.00
29839;BME280;18669;53.356;-1.464;2022-12-04T14:25:42;100977.81;;;7.15;100.00
29839;BME280;18669;53.356;-1.464;2022-12-04T14:31:07;100982.19;;;7.07;100.00
29839;BME280;18669;53.356;-1.464;2022-12-04T14:33:48;100974.38;;;7.04;100.00
29839;BME280;18669;53.356;-1.464;2022-12-04T14:36:27;100985.69;;;7.06;100.00
29839;BME280;18669;53.356;-1.464;2022-12-04T14:42:03;100987.41;;;6.90;100.00
29839;BME280;18669;53.356;-1.464;2022-12-04T14:44:30;100991.78;;;6.81;100.00
29839;BME280;18669;53.356;-1.464;2022-12-04T14:47:27;101001.38;;;6.90;100.00